Time;durP1;ratioP1;P1;durP2;ratioP2;P2;SDS_P1;SDS_P2;PMS_P1;PMS_P2;Temp;Humidity;BMP_temperature;BMP_pressure;BME280_temperature;BME280_humidity;BME280_pressure;Samples;Min_cycle;Max_cycle;Signal;HPM_P1;HPM_P2
2022/04/29 00:01:26;;;;;;;18.42;7.70;;;;;;;;;;5016121;28;20124;-60
2022/04/29 00:03:53;;;;;;;13.77;7.65;;;;;;;;;;5015805;28;20053;-60
2022/04/29 00:06:19;;;;;;;15.82;8.05;;;;;;;;;;5015512;28;20077;-60
2022/04/29 00:08:45;;;;;;;12.30;8.23;;;;;;;;;;5015073;28;20046;-60
2022/04/29 00:11:11;;;;;;;13.80;7.15;;;;;;;;;;5015840;28;20041;-60
2022/04/29 00:13:38;;;;;;;13.07;7.72;;;;;;;;;;5015104;28;20542;-60
2022/04/29 00:16:05;;;;;;;12.25;7.93;;;;;;;;;;5015772;28;20038;-60
2022/04/29 00:18:31;;;;;;;13.55;7.65;;;;;;;;;;5014208;28;20054;-60
2022/04/29 00:20:57;;;;;;;10.05;7.10;;;;;;;;;;5015315;28;20046;-60
2022/04/29 00:23:23;;;;;;;12.48;7.53;;;;;;;;;;5015588;28;20053;-60
2022/04/29 00:25:49;;;;;;;13.77;7.35;;;;;;;;;;5015452;28;20049;-60
2022/04/29 00:28:15;;;;;;;15.52;7.13;;;;;;;;;;5014761;28;20038;-60
2022/04/29 00:30:42;;;;;;;14.27;7.45;;;;;;;;;;5015234;28;20052;-60
2022/04/29 00:33:07;;;;;;;11.32;7.43;;;;;;;;;;5015617;28;20097;-60
2022/04/29 00:35:34;;;;;;;15.82;7.85;;;;;;;;;;5014934;28;20116;-60
2022/04/29 00:38:00;;;;;;;12.13;7.75;;;;;;;;;;5015671;28;20104;-60
2022/04/29 00:40:30;;;;;;;17.05;8.48;;;;;;;;;;5015572;28;20042;-60
2022/04/29 00:42:56;;;;;;;14.68;7.78;;;;;;;;;;5014982;28;20512;-60
2022/04/29 00:45:23;;;;;;;15.77;8.43;;;;;;;;;;5015214;28;20069;-60
2022/04/29 00:47:49;;;;;;;17.27;8.73;;;;;;;;;;5015028;28;20042;-60
2022/04/29 00:50:17;;;;;;;12.82;7.60;;;;;;;;;;5014787;28;20116;-60
2022/04/29 00:52:45;;;;;;;11.05;7.53;;;;;;;;;;5015585;28;20042;-60
2022/04/29 00:55:12;;;;;;;15.00;8.38;;;;;;;;;;5015312;28;20080;-60
2022/04/29 00:57:41;;;;;;;14.85;8.15;;;;;;;;;;5014333;28;20501;-60
2022/04/29 01:00:08;;;;;;;17.00;8.43;;;;;;;;;;5015925;28;20053;-60
2022/04/29 01:02:38;;;;;;;17.77;8.93;;;;;;;;;;5015868;28;20034;-60
2022/04/29 01:05:06;;;;;;;14.70;8.32;;;;;;;;;;5014814;28;20053;-60
2022/04/29 01:07:33;;;;;;;17.38;8.68;;;;;;;;;;5015214;28;20061;-60
2022/04/29 01:09:59;;;;;;;14.80;8.60;;;;;;;;;;5015637;28;20111;-60
2022/04/29 01:12:26;;;;;;;16.65;8.73;;;;;;;;;;5014881;28;20476;-60
2022/04/29 01:14:56;;;;;;;18.80;9.30;;;;;;;;;;5015362;28;20539;-60
2022/04/29 01:17:22;;;;;;;14.48;8.52;;;;;;;;;;5015070;28;20042;-60
2022/04/29 01:19:49;;;;;;;16.42;8.65;;;;;;;;;;5014279;28;20046;-60
2022/04/29 01:22:15;;;;;;;12.77;8.45;;;;;;;;;;5015173;28;20065;-60
2022/04/29 01:24:41;;;;;;;17.33;8.82;;;;;;;;;;5015245;28;20046;-60
2022/04/29 01:27:10;;;;;;;16.70;9.15;;;;;;;;;;5014496;28;20381;-60
2022/04/29 01:29:41;;;;;;;15.05;8.90;;;;;;;;;;5015080;28;20042;-60
2022/04/29 01:32:09;;;;;;;19.05;9.15;;;;;;;;;;5015400;28;20044;-60
2022/04/29 01:34:35;;;;;;;16.52;9.00;;;;;;;;;;5014426;28;20037;-60
2022/04/29 01:37:01;;;;;;;17.45;8.65;;;;;;;;;;5015373;28;20048;-60
2022/04/29 01:39:27;;;;;;;18.33;9.52;;;;;;;;;;5014896;28;20042;-60
2022/04/29 01:41:53;;;;;;;16.75;8.73;;;;;;;;;;5013909;28;20136;-60
2022/04/29 01:44:19;;;;;;;13.48;9.05;;;;;;;;;;5014830;28;20558;-60
2022/04/29 01:46:46;;;;;;;17.08;9.02;;;;;;;;;;5014485;28;20045;-60
2022/04/29 01:49:13;;;;;;;17.15;8.57;;;;;;;;;;5014024;28;20129;-60
2022/04/29 01:51:39;;;;;;;12.82;8.52;;;;;;;;;;5014651;28;20050;-60
2022/04/29 01:54:10;;;;;;;12.30;8.30;;;;;;;;;;5014424;28;20053;-60
2022/04/29 01:56:37;;;;;;;15.35;8.38;;;;;;;;;;5012966;28;20056;-60
2022/04/29 01:59:04;;;;;;;14.93;8.80;;;;;;;;;;5014631;28;20077;-60
2022/04/29 02:01:30;;;;;;;14.40;7.78;;;;;;;;;;5014267;28;20401;-60
2022/04/29 02:03:58;;;;;;;13.13;8.57;;;;;;;;;;5012904;28;20046;-60
2022/04/29 02:06:26;;;;;;;17.85;8.45;;;;;;;;;;5014944;28;20133;-60
2022/04/29 02:08:52;;;;;;;14.55;8.65;;;;;;;;;;5014498;28;20046;-60
2022/04/29 02:11:19;;;;;;;20.90;8.93;;;;;;;;;;5012099;28;20435;-60
2022/04/29 02:13:48;;;;;;;19.35;8.73;;;;;;;;;;5014476;28;20042;-60
2022/04/29 02:16:14;;;;;;;13.68;9.13;;;;;;;;;;5014520;28;20045;-60
2022/04/29 02:18:41;;;;;;;20.13;9.25;;;;;;;;;;5013602;28;20053;-60
2022/04/29 02:21:07;;;;;;;16.73;8.93;;;;;;;;;;5015381;28;20073;-60
2022/04/29 02:23:33;;;;;;;15.38;8.75;;;;;;;;;;5014466;28;20046;-60
2022/04/29 02:26:00;;;;;;;16.95;8.77;;;;;;;;;;5013943;28;20038;-60
2022/04/29 02:28:31;;;;;;;13.45;8.35;;;;;;;;;;5014103;28;20480;-60
2022/04/29 02:30:57;;;;;;;14.75;9.38;;;;;;;;;;5014739;28;20042;-60
2022/04/29 02:33:23;;;;;;;16.33;8.50;;;;;;;;;;5018120;28;20037;-60
2022/04/29 02:35:50;;;;;;;17.77;9.27;;;;;;;;;;5018154;28;20042;-60
2022/04/29 02:38:19;;;;;;;16.48;9.10;;;;;;;;;;5017403;28;20100;-60
2022/04/29 02:40:45;;;;;;;17.90;8.18;;;;;;;;;;5017724;28;20077;-59
2022/04/29 02:43:11;;;;;;;17.42;8.98;;;;;;;;;;5017871;28;20061;-60
2022/04/29 02:45:37;;;;;;;17.48;9.13;;;;;;;;;;5017611;28;20045;-60
2022/04/29 02:48:04;;;;;;;17.17;9.18;;;;;;;;;;5016733;28;20046;-60
2022/04/29 02:50:30;;;;;;;15.43;8.77;;;;;;;;;;5017392;28;20034;-60
2022/04/29 02:52:56;;;;;;;16.42;8.85;;;;;;;;;;5017626;28;20472;-60
2022/04/29 02:55:22;;;;;;;15.75;8.98;;;;;;;;;;5016669;28;20092;-60
2022/04/29 02:57:48;;;;;;;13.25;8.45;;;;;;;;;;5017513;28;20058;-60
2022/04/29 03:00:15;;;;;;;22.20;9.73;;;;;;;;;;5016203;28;20080;-60
2022/04/29 03:02:41;;;;;;;14.60;8.50;;;;;;;;;;5014939;28;20053;-60
2022/04/29 03:05:07;;;;;;;15.90;9.02;;;;;;;;;;5016733;28;20511;-60
2022/04/29 03:07:33;;;;;;;15.25;9.18;;;;;;;;;;5016257;28;20073;-60
2022/04/29 03:10:00;;;;;;;20.92;9.32;;;;;;;;;;5015526;28;20073;-60
2022/04/29 03:12:26;;;;;;;15.80;9.63;;;;;;;;;;5016852;28;20503;-60
2022/04/29 03:14:52;;;;;;;13.63;8.70;;;;;;;;;;5016800;28;20045;-60
2022/04/29 03:20:04;;;;;;;15.52;9.52;;;;;;;;;;5016839;28;20045;-60
2022/04/29 03:22:30;;;;;;;13.23;8.77;;;;;;;;;;5016491;28;20042;-60
2022/04/29 03:24:56;;;;;;;13.23;8.65;;;;;;;;;;5016514;28;20040;-60
2022/04/29 03:27:22;;;;;;;19.08;8.88;;;;;;;;;;5016357;28;20042;-60
2022/04/29 03:29:48;;;;;;;16.88;9.00;;;;;;;;;;5016522;28;20080;-60
2022/04/29 03:32:14;;;;;;;11.65;8.98;;;;;;;;;;5030916;28;20042;-60
2022/04/29 03:34:40;;;;;;;15.73;8.70;;;;;;;;;;5016610;28;20034;-60
2022/04/29 03:37:06;;;;;;;17.23;9.60;;;;;;;;;;5016318;28;20038;-60
2022/04/29 03:39:33;;;;;;;17.45;9.48;;;;;;;;;;5015827;28;20042;-60
2022/04/29 03:41:59;;;;;;;17.75;9.07;;;;;;;;;;5016858;28;20042;-60
2022/04/29 03:44:25;;;;;;;13.13;8.73;;;;;;;;;;5015269;28;20492;-60
2022/04/29 03:46:51;;;;;;;15.75;8.65;;;;;;;;;;5015840;28;20046;-60
2022/04/29 03:49:35;;;;;;;13.07;8.85;;;;;;;;;;5015847;28;20041;-60
2022/04/29 03:52:01;;;;;;;18.40;9.63;;;;;;;;;;5016043;28;20057;-60
2022/04/29 03:54:27;;;;;;;17.83;9.50;;;;;;;;;;5015266;28;20113;-60
2022/04/29 03:56:53;;;;;;;14.57;8.80;;;;;;;;;;5015954;28;20103;-60
2022/04/29 03:59:19;;;;;;;18.35;9.48;;;;;;;;;;5015987;28;20074;-60
2022/04/29 04:01:45;;;;;;;16.63;9.25;;;;;;;;;;5015226;28;20392;-60
2022/04/29 04:04:12;;;;;;;15.27;8.95;;;;;;;;;;5015794;28;20048;-60
2022/04/29 04:06:50;;;;;;;16.67;9.55;;;;;;;;;;5015872;28;20066;-60
2022/04/29 04:09:17;;;;;;;14.23;8.38;;;;;;;;;;5014815;28;20045;-60
2022/04/29 04:11:43;;;;;;;16.92;9.77;;;;;;;;;;5014477;28;20048;-60
2022/04/29 04:14:09;;;;;;;14.60;9.13;;;;;;;;;;5015703;28;20451;-60
2022/04/29 04:16:38;;;;;;;16.08;9.32;;;;;;;;;;5015325;28;20095;-60
2022/04/29 04:19:05;;;;;;;18.60;10.10;;;;;;;;;;5015927;28;20041;-60
2022/04/29 04:21:31;;;;;;;17.33;9.35;;;;;;;;;;5015703;28;20042;-60
2022/04/29 04:23:57;;;;;;;15.68;9.32;;;;;;;;;;5015173;28;20037;-60
2022/04/29 04:26:23;;;;;;;14.85;8.88;;;;;;;;;;5015505;28;20380;-60
2022/04/29 04:28:49;;;;;;;15.75;9.55;;;;;;;;;;5015540;28;20048;-60
2022/04/29 04:31:16;;;;;;;22.60;9.82;;;;;;;;;;5014917;28;20400;-60
2022/04/29 04:33:42;;;;;;;13.02;8.73;;;;;;;;;;5015050;28;20088;-60
2022/04/29 04:36:09;;;;;;;17.20;8.70;;;;;;;;;;5015328;28;20034;-60
2022/04/29 04:38:36;;;;;;;19.02;9.32;;;;;;;;;;5014743;28;20053;-60
2022/04/29 04:41:03;;;;;;;19.67;9.15;;;;;;;;;;5015494;28;20042;-60
2022/04/29 04:43:29;;;;;;;13.82;9.02;;;;;;;;;;5015333;28;20046;-60
2022/04/29 04:45:56;;;;;;;18.85;10.32;;;;;;;;;;5013967;28;20050;-60
2022/04/29 04:48:22;;;;;;;15.82;8.77;;;;;;;;;;5015159;28;20049;-61
2022/04/29 04:50:48;;;;;;;18.65;9.07;;;;;;;;;;5015138;28;20133;-60
2022/04/29 04:53:14;;;;;;;21.75;10.23;;;;;;;;;;5014345;28;20057;-60
2022/04/29 04:55:40;;;;;;;21.05;9.55;;;;;;;;;;5014521;28;20073;-61
2022/04/29 04:58:08;;;;;;;23.38;9.60;;;;;;;;;;5014872;28;20042;-61
2022/04/29 05:00:35;;;;;;;20.48;10.57;;;;;;;;;;5014226;28;20137;-61
2022/04/29 05:03:01;;;;;;;15.57;9.25;;;;;;;;;;5014790;28;20053;-60
2022/04/29 05:05:27;;;;;;;21.65;9.82;;;;;;;;;;5014597;28;20081;-61
2022/04/29 05:07:54;;;;;;;19.85;10.50;;;;;;;;;;5013706;28;20073;-60
2022/04/29 05:10:20;;;;;;;17.00;9.45;;;;;;;;;;5014426;28;20042;-60
2022/04/29 05:12:47;;;;;;;21.88;10.43;;;;;;;;;;5015028;28;20041;-60
2022/04/29 05:15:14;;;;;;;17.08;9.65;;;;;;;;;;5014345;28;20037;-60
2022/04/29 05:17:40;;;;;;;15.85;9.23;;;;;;;;;;5014485;28;20050;-60
2022/04/29 05:20:07;;;;;;;17.92;9.02;;;;;;;;;;5014308;28;20095;-60
2022/04/29 05:22:33;;;;;;;17.00;9.45;;;;;;;;;;5014524;28;20639;-61
2022/04/29 05:24:59;;;;;;;14.55;9.05;;;;;;;;;;5014641;28;20065;-60
2022/04/29 05:27:26;;;;;;;18.83;9.65;;;;;;;;;;5014703;28;20041;-60
2022/04/29 05:29:52;;;;;;;29.60;9.60;;;;;;;;;;5014799;28;20048;-60
2022/04/29 05:32:18;;;;;;;15.60;9.07;;;;;;;;;;5014157;28;20376;-61
2022/04/29 05:34:45;;;;;;;18.77;8.77;;;;;;;;;;5014485;28;20042;-61
2022/04/29 05:37:11;;;;;;;16.38;8.48;;;;;;;;;;5014815;28;20556;-60
2022/04/29 05:42:23;;;;;;;17.88;8.63;;;;;;;;;;5014283;28;20054;-60
2022/04/29 05:44:49;;;;;;;14.98;8.30;;;;;;;;;;5013769;28;20096;-60
2022/04/29 05:47:15;;;;;;;16.75;8.88;;;;;;;;;;5014516;28;20542;-61
2022/04/29 05:49:41;;;;;;;16.25;8.40;;;;;;;;;;5012342;28;20054;-61
2022/04/29 05:52:08;;;;;;;17.50;8.68;;;;;;;;;;5012856;28;20045;-61
2022/04/29 05:54:34;;;;;;;15.90;7.97;;;;;;;;;;5014134;28;20030;-60
2022/04/29 05:57:01;;;;;;;20.08;8.95;;;;;;;;;;5011058;28;20469;-61
2022/04/29 05:59:27;;;;;;;14.48;7.75;;;;;;;;;;5012148;28;20121;-61
2022/04/29 06:01:53;;;;;;;15.55;7.90;;;;;;;;;;5011632;28;20128;-61
2022/04/29 06:04:19;;;;;;;12.98;7.88;;;;;;;;;;5013528;28;20045;-61
2022/04/29 06:06:45;;;;;;;14.30;7.88;;;;;;;;;;5015492;28;20085;-61
2022/04/29 06:09:11;;;;;;;16.88;8.57;;;;;;;;;;5017543;28;20058;-61
2022/04/29 06:11:37;;;;;;;14.07;6.88;;;;;;;;;;5016304;28;20384;-60
2022/04/29 06:14:03;;;;;;;15.32;7.88;;;;;;;;;;5016808;28;20462;-60
2022/04/29 06:16:29;;;;;;;12.68;7.18;;;;;;;;;;5015695;28;20042;-60
2022/04/29 06:18:55;;;;;;;12.43;7.55;;;;;;;;;;5016479;28;20185;-61
2022/04/29 06:21:22;;;;;;;16.90;7.78;;;;;;;;;;5016897;28;20088;-59
2022/04/29 06:23:48;;;;;;;17.95;7.75;;;;;;;;;;5013741;28;20559;-60
2022/04/29 06:26:16;;;;;;;13.18;6.88;;;;;;;;;;5016509;28;20041;-59
2022/04/29 06:28:42;;;;;;;20.92;7.30;;;;;;;;;;5016284;28;20042;-60
2022/04/29 06:31:08;;;;;;;15.27;7.57;;;;;;;;;;5015590;28;20699;-60
2022/04/29 06:33:35;;;;;;;12.88;6.72;;;;;;;;;;5015758;28;20080;-58
2022/04/29 06:36:01;;;;;;;19.38;7.70;;;;;;;;;;5016979;28;20040;-60
2022/04/29 06:38:28;;;;;;;17.00;6.72;;;;;;;;;;5015513;28;20121;-57
2022/04/29 06:40:55;;;;;;;7.95;5.75;;;;;;;;;;5006531;28;20060;-58
2022/04/29 06:43:22;;;;;;;15.25;6.35;;;;;;;;;;5015632;28;20104;-59
2022/04/29 06:45:48;;;;;;;12.93;6.05;;;;;;;;;;5017941;28;20080;-56
2022/04/29 06:48:14;;;;;;;11.93;6.00;;;;;;;;;;5015535;28;20141;-57
2022/04/29 06:50:41;;;;;;;14.98;6.95;;;;;;;;;;5016638;28;20464;-58
2022/04/29 06:53:07;;;;;;;12.73;6.53;;;;;;;;;;5015507;28;20034;-60
2022/04/29 06:55:36;;;;;;;14.98;7.40;;;;;;;;;;5016144;28;20061;-59
2022/04/29 06:58:02;;;;;;;16.15;7.13;;;;;;;;;;5015118;28;20416;-58
2022/04/29 07:00:28;;;;;;;12.77;6.38;;;;;;;;;;5015376;28;20050;-58
2022/04/29 07:02:56;;;;;;;14.48;6.28;;;;;;;;;;5016551;28;20041;-57
2022/04/29 07:05:23;;;;;;;13.15;6.13;;;;;;;;;;5014949;28;20062;-60
2022/04/29 07:07:49;;;;;;;10.50;5.80;;;;;;;;;;5015328;28;20050;-58
2022/04/29 07:10:16;;;;;;;15.43;5.70;;;;;;;;;;5016789;28;20443;-59
2022/04/29 07:12:43;;;;;;;10.00;5.70;;;;;;;;;;5018038;28;20076;-60
2022/04/29 07:15:10;;;;;;;9.38;4.88;;;;;;;;;;5016543;28;20082;-58
2022/04/29 07:17:36;;;;;;;11.80;5.57;;;;;;;;;;5016212;28;20038;-60
2022/04/29 07:20:02;;;;;;;7.30;5.15;;;;;;;;;;5017366;28;20041;-57
2022/04/29 07:22:28;;;;;;;10.20;5.47;;;;;;;;;;5014693;28;20560;-59
2022/04/29 07:24:54;;;;;;;10.20;4.97;;;;;;;;;;5015445;28;20034;-56
2022/04/29 07:27:21;;;;;;;7.95;4.95;;;;;;;;;;5016139;28;20045;-57
2022/04/29 07:29:48;;;;;;;7.32;4.88;;;;;;;;;;5015472;28;20042;-59
2022/04/29 07:32:14;;;;;;;8.70;4.82;;;;;;;;;;5014123;28;20106;-60
2022/04/29 07:42:54;;;;;;;8.40;4.63;;;;;;;;;;5010330;28;20062;-56
2022/04/29 07:45:20;;;;;;;9.68;4.82;;;;;;;;;;5013847;28;20041;-58
2022/04/29 07:47:46;;;;;;;7.50;4.10;;;;;;;;;;5015542;28;20050;-58
2022/04/29 07:50:13;;;;;;;8.55;3.92;;;;;;;;;;5015083;28;20113;-59
2022/04/29 07:52:39;;;;;;;7.00;4.50;;;;;;;;;;5014107;28;20776;-59
2022/04/29 07:55:05;;;;;;;11.27;4.60;;;;;;;;;;5014858;28;20033;-59
2022/04/29 07:57:31;;;;;;;9.80;4.60;;;;;;;;;;5015045;28;20064;-59
2022/04/29 07:59:57;;;;;;;12.20;3.97;;;;;;;;;;5015046;28;20469;-59
2022/04/29 08:02:23;;;;;;;10.75;3.60;;;;;;;;;;5014180;28;20045;-57
2022/04/29 08:04:49;;;;;;;5.20;3.72;;;;;;;;;;5012676;28;20061;-59
2022/04/29 08:07:15;;;;;;;10.70;3.55;;;;;;;;;;5015777;28;20034;-61
2022/04/29 08:09:41;;;;;;;8.57;3.45;;;;;;;;;;5010643;28;21434;-58
2022/04/29 08:12:10;;;;;;;4.75;3.67;;;;;;;;;;5012256;28;20117;-55
2022/04/29 08:14:36;;;;;;;8.82;3.08;;;;;;;;;;5009222;28;20038;-57
2022/04/29 08:17:02;;;;;;;5.38;3.05;;;;;;;;;;5010253;28;20046;-56
2022/04/29 08:19:30;;;;;;;6.55;3.00;;;;;;;;;;5011080;28;20048;-55
2022/04/29 08:21:56;;;;;;;5.32;3.08;;;;;;;;;;5008707;28;20040;-57
2022/04/29 08:24:23;;;;;;;5.72;3.47;;;;;;;;;;5012811;28;20384;-57
2022/04/29 08:26:49;;;;;;;13.18;3.50;;;;;;;;;;5010640;28;20049;-56
2022/04/29 08:29:15;;;;;;;5.05;3.00;;;;;;;;;;5009308;28;20432;-58
2022/04/29 08:31:41;;;;;;;6.43;3.10;;;;;;;;;;5009628;28;20092;-55
2022/04/29 08:34:09;;;;;;;7.00;2.97;;;;;;;;;;5008416;28;20037;-57
2022/04/29 08:36:35;;;;;;;7.45;3.20;;;;;;;;;;5009500;28;20565;-58
2022/04/29 08:39:01;;;;;;;5.18;3.10;;;;;;;;;;5011385;28;20121;-57
2022/04/29 08:41:27;;;;;;;7.70;3.47;;;;;;;;;;5010644;28;20095;-59
2022/04/29 08:43:54;;;;;;;5.55;3.05;;;;;;;;;;5011341;28;20473;-57
2022/04/29 08:46:23;;;;;;;6.32;3.55;;;;;;;;;;5008498;28;20057;-59
2022/04/29 08:48:50;;;;;;;5.07;2.97;;;;;;;;;;5008750;28;20056;-57
2022/04/29 08:51:16;;;;;;;6.45;3.20;;;;;;;;;;5011249;28;20053;-59
2022/04/29 08:53:43;;;;;;;5.18;2.97;;;;;;;;;;5011121;28;20609;-61
2022/04/29 08:58:54;;;;;;;7.25;4.00;;;;;;;;;;5000854;28;20069;-56
2022/04/29 09:01:21;;;;;;;8.57;3.95;;;;;;;;;;5010924;28;20077;-58
2022/04/29 09:03:47;;;;;;;8.20;4.07;;;;;;;;;;5010428;28;20396;-58
2022/04/29 09:06:17;;;;;;;10.85;3.75;;;;;;;;;;5008105;28;20050;-59
2022/04/29 09:08:44;;;;;;;4.95;3.35;;;;;;;;;;5013280;28;20591;-60
2022/04/29 09:11:11;;;;;;;4.10;2.90;;;;;;;;;;5010405;28;20065;-60
2022/04/29 09:13:38;;;;;;;5.40;3.40;;;;;;;;;;5013006;28;20030;-62
2022/04/29 09:16:10;;;;;;;6.78;3.45;;;;;;;;;;5014777;28;20030;-59
2022/04/29 09:18:42;;;;;;;9.77;3.60;;;;;;;;;;5012392;28;20041;-60
2022/04/29 09:21:11;;;;;;;7.03;2.97;;;;;;;;;;5012912;28;20428;-59
2022/04/29 09:23:38;;;;;;;5.93;2.95;;;;;;;;;;5014611;28;20041;-58
2022/04/29 09:26:06;;;;;;;6.60;3.08;;;;;;;;;;5012734;28;20069;-59
2022/04/29 09:28:36;;;;;;;6.78;3.05;;;;;;;;;;5012252;28;20041;-59
2022/04/29 09:31:03;;;;;;;8.82;3.30;;;;;;;;;;5009137;28;20628;-56
2022/04/29 09:33:30;;;;;;;7.35;3.05;;;;;;;;;;5014850;28;20050;-60
2022/04/29 09:35:57;;;;;;;6.97;2.67;;;;;;;;;;5013491;28;20034;-60
2022/04/29 09:41:08;;;;;;;6.55;3.13;;;;;;;;;;5013975;28;20049;-56
2022/04/29 09:43:43;;;;;;;8.20;3.40;;;;;;;;;;5016740;28;20048;-56
2022/04/29 09:46:19;;;;;;;3.30;2.55;;;;;;;;;;5011078;28;20049;-57
2022/04/29 09:48:52;;;;;;;8.43;2.80;;;;;;;;;;5008482;28;20042;-57
2022/04/29 09:51:37;;;;;;;11.90;3.05;;;;;;;;;;5007801;28;20076;-57
2022/04/29 09:54:16;;;;;;;8.10;2.72;;;;;;;;;;5011495;28;20030;-55
2022/04/29 09:56:42;;;;;;;6.60;2.95;;;;;;;;;;5015976;28;20045;-60
2022/04/29 09:59:09;;;;;;;6.70;2.70;;;;;;;;;;5017579;28;20069;-59
2022/04/29 10:01:35;;;;;;;9.15;3.42;;;;;;;;;;5015366;28;20041;-56
2022/04/29 10:04:01;;;;;;;6.15;3.00;;;;;;;;;;5012503;28;20049;-57
2022/04/29 10:06:29;;;;;;;5.55;2.80;;;;;;;;;;5018800;28;20083;-56
2022/04/29 10:08:57;;;;;;;9.45;3.67;;;;;;;;;;5017667;28;20053;-55
2022/04/29 10:11:24;;;;;;;6.95;2.92;;;;;;;;;;5016184;28;20034;-56
2022/04/29 10:13:51;;;;;;;2.97;2.42;;;;;;;;;;5017818;28;20091;-56
2022/04/29 10:16:18;;;;;;;8.93;3.05;;;;;;;;;;5016479;28;20042;-57
2022/04/29 10:21:38;;;;;;;6.45;3.03;;;;;;;;;;5017086;28;20493;-56
2022/04/29 10:24:04;;;;;;;4.40;2.40;;;;;;;;;;5017812;28;20041;-57
2022/04/29 10:26:31;;;;;;;8.77;2.63;;;;;;;;;;5015635;28;20058;-57
2022/04/29 10:28:57;;;;;;;7.55;2.90;;;;;;;;;;5018339;28;20046;-57
2022/04/29 10:31:24;;;;;;;9.20;2.67;;;;;;;;;;5017799;28;20164;-55
2022/04/29 10:33:50;;;;;;;6.32;2.72;;;;;;;;;;4999710;28;20042;-57
2022/04/29 10:36:16;;;;;;;8.35;2.63;;;;;;;;;;5016138;28;20038;-56
2022/04/29 10:38:46;;;;;;;10.32;3.28;;;;;;;;;;5017959;28;20057;-57
2022/04/29 10:41:25;;;;;;;2.78;2.50;;;;;;;;;;5015705;28;20125;-57
2022/04/29 10:43:52;;;;;;;7.22;2.40;;;;;;;;;;5018216;28;20097;-56
2022/04/29 10:46:30;;;;;;;7.35;2.78;;;;;;;;;;5016470;28;20049;-57
2022/04/29 10:48:56;;;;;;;4.70;2.30;;;;;;;;;;5008431;28;20096;-60
2022/04/29 10:51:25;;;;;;;7.90;3.30;;;;;;;;;;5014759;28;20038;-59
2022/04/29 10:53:53;;;;;;;5.20;2.65;;;;;;;;;;5016551;28;20037;-59
2022/04/29 10:56:31;;;;;;;5.18;3.25;;;;;;;;;;5014597;28;20266;-64
2022/04/29 10:59:09;;;;;;;6.88;2.80;;;;;;;;;;5011453;28;20037;-65
2022/04/29 11:01:36;;;;;;;6.68;2.95;;;;;;;;;;5010493;28;20038;-64
2022/04/29 11:04:07;;;;;;;6.80;3.22;;;;;;;;;;5003459;28;20045;-65
2022/04/29 11:06:41;;;;;;;7.38;3.00;;;;;;;;;;5014477;28;20140;-64
2022/04/29 11:09:26;;;;;;;4.22;2.75;;;;;;;;;;5017998;28;20100;-63
2022/04/29 11:11:53;;;;;;;5.55;2.92;;;;;;;;;;5018719;28;20066;-64
2022/04/29 11:14:24;;;;;;;6.63;3.60;;;;;;;;;;5015479;28;21954;-64
2022/04/29 11:16:58;;;;;;;6.40;2.92;;;;;;;;;;5009545;28;20120;-63
2022/04/29 11:19:28;;;;;;;5.18;3.50;;;;;;;;;;5012370;28;20160;-64
2022/04/29 11:24:46;;;;;;;5.40;3.53;;;;;;;;;;5017453;28;20050;-64
2022/04/29 11:27:12;;;;;;;6.93;3.20;;;;;;;;;;5011715;28;20073;-65
2022/04/29 11:30:01;;;;;;;6.07;2.78;;;;;;;;;;5018098;28;20049;-65
2022/04/29 11:32:31;;;;;;;6.65;4.07;;;;;;;;;;5020696;28;20745;-63
2022/04/29 11:35:00;;;;;;;5.68;3.08;;;;;;;;;;5020029;28;20042;-64
2022/04/29 11:37:27;;;;;;;8.02;3.58;;;;;;;;;;5021616;28;20037;-63
2022/04/29 11:39:57;;;;;;;5.88;3.40;;;;;;;;;;5023550;28;20076;-62
2022/04/29 11:42:23;;;;;;;9.93;3.78;;;;;;;;;;5021584;28;20038;-62
2022/04/29 11:44:49;;;;;;;7.07;3.70;;;;;;;;;;5024161;28;20054;-62
2022/04/29 11:47:30;;;;;;;7.82;3.45;;;;;;;;;;5024139;28;20600;-62
2022/04/29 11:49:56;;;;;;;8.75;4.25;;;;;;;;;;5025056;28;20076;-63
2022/04/29 11:52:25;;;;;;;5.93;4.00;;;;;;;;;;5022353;28;20045;-62
2022/04/29 11:55:05;;;;;;;11.20;5.13;;;;;;;;;;5023231;28;20041;-64
2022/04/29 11:57:33;;;;;;;10.88;4.63;;;;;;;;;;5020573;28;20033;-64
2022/04/29 12:00:01;;;;;;;6.97;4.15;;;;;;;;;;5023472;28;20248;-64
2022/04/29 12:02:29;;;;;;;6.60;3.85;;;;;;;;;;5012981;28;20053;-64
2022/04/29 12:04:59;;;;;;;5.97;4.35;;;;;;;;;;5020612;28;20072;-65
2022/04/29 12:07:27;;;;;;;9.65;4.43;;;;;;;;;;5024741;28;20503;-64
2022/04/29 12:09:54;;;;;;;10.32;4.53;;;;;;;;;;5019392;28;20048;-63
2022/04/29 12:12:31;;;;;;;10.70;4.38;;;;;;;;;;5019308;28;20042;-63
2022/04/29 12:15:00;;;;;;;16.52;5.00;;;;;;;;;;5021020;28;20061;-63
2022/04/29 12:17:35;;;;;;;8.02;4.03;;;;;;;;;;5027662;28;20041;-65
2022/04/29 12:20:02;;;;;;;8.07;4.30;;;;;;;;;;5016381;28;20041;-64
2022/04/29 12:22:41;;;;;;;7.88;4.00;;;;;;;;;;5013768;28;20092;-66
2022/04/29 12:25:27;;;;;;;8.18;4.55;;;;;;;;;;5017765;28;20041;-65
2022/04/29 12:28:07;;;;;;;9.45;4.80;;;;;;;;;;5015844;28;20066;-64
2022/04/29 12:36:10;;;;;;;8.98;5.93;;;;;;;;;;5011710;28;20105;-63
2022/04/29 12:38:37;;;;;;;7.75;5.00;;;;;;;;;;5011272;28;20359;-64
2022/04/29 12:41:23;;;;;;;14.88;5.38;;;;;;;;;;5016044;28;20038;-64
2022/04/29 12:43:51;;;;;;;27.45;5.78;;;;;;;;;;5007662;28;20049;-63
2022/04/29 12:46:18;;;;;;;9.85;4.90;;;;;;;;;;5015518;28;20038;-63
2022/04/29 12:48:48;;;;;;;6.50;4.50;;;;;;;;;;5015828;28;20476;-64
2022/04/29 12:51:32;;;;;;;7.45;4.57;;;;;;;;;;5019727;28;20456;-63
2022/04/29 12:54:01;;;;;;;18.50;5.53;;;;;;;;;;5016891;28;20053;-63
2022/04/29 12:56:34;;;;;;;31.48;6.10;;;;;;;;;;5013058;28;20064;-63
2022/04/29 12:59:03;;;;;;;29.58;5.95;;;;;;;;;;5013288;28;20128;-64
2022/04/29 13:01:41;;;;;;;5.53;4.10;;;;;;;;;;5016127;28;20107;-64
2022/04/29 13:04:08;;;;;;;17.65;5.57;;;;;;;;;;5014154;28;20103;-64
2022/04/29 13:06:34;;;;;;;11.23;4.78;;;;;;;;;;5011695;28;20056;-63
2022/04/29 13:09:04;;;;;;;25.33;5.40;;;;;;;;;;5014989;28;20038;-64
2022/04/29 13:11:32;;;;;;;19.95;4.82;;;;;;;;;;5005656;28;20069;-63
2022/04/29 13:13:59;;;;;;;8.68;4.28;;;;;;;;;;5014072;28;20113;-63
2022/04/29 13:16:26;;;;;;;14.88;4.50;;;;;;;;;;5017420;28;20059;-65
2022/04/29 13:18:54;;;;;;;7.18;4.57;;;;;;;;;;5012243;28;20112;-65
2022/04/29 13:21:20;;;;;;;6.53;4.10;;;;;;;;;;5016205;28;20137;-65
2022/04/29 13:23:47;;;;;;;5.60;3.90;;;;;;;;;;5011930;28;20036;-65
2022/04/29 13:26:13;;;;;;;12.93;4.22;;;;;;;;;;5013821;28;20070;-65
2022/04/29 13:28:42;;;;;;;13.80;4.22;;;;;;;;;;5017023;28;20049;-64
2022/04/29 13:31:10;;;;;;;6.88;3.50;;;;;;;;;;5015903;28;20042;-64
2022/04/29 13:33:37;;;;;;;10.30;3.92;;;;;;;;;;5019211;28;20041;-64
2022/04/29 13:36:03;;;;;;;5.82;3.30;;;;;;;;;;5019141;28;20087;-64
2022/04/29 13:38:29;;;;;;;4.95;3.97;;;;;;;;;;5013559;28;20125;-65
2022/04/29 13:40:56;;;;;;;9.27;3.50;;;;;;;;;;5016320;28;20044;-65
2022/04/29 13:43:22;;;;;;;11.70;4.03;;;;;;;;;;5020234;28;20416;-64
2022/04/29 13:45:48;;;;;;;9.65;3.47;;;;;;;;;;5020365;28;20042;-65
2022/04/29 13:48:15;;;;;;;7.32;3.40;;;;;;;;;;5016444;28;20045;-66
2022/04/29 13:50:45;;;;;;;6.00;3.08;;;;;;;;;;5011606;28;20038;-67
2022/04/29 13:53:14;;;;;;;5.55;3.28;;;;;;;;;;5010816;28;20043;-66
2022/04/29 13:55:50;;;;;;;6.03;2.95;;;;;;;;;;5011336;28;20038;-67
2022/04/29 13:58:16;;;;;;;5.47;2.90;;;;;;;;;;5011159;28;20053;-67
2022/04/29 14:00:43;;;;;;;5.28;2.70;;;;;;;;;;5010797;28;20129;-67
2022/04/29 14:03:10;;;;;;;4.25;2.65;;;;;;;;;;5010093;28;20543;-66
2022/04/29 14:05:36;;;;;;;4.95;2.30;;;;;;;;;;5010224;28;20061;-65
2022/04/29 14:08:02;;;;;;;6.07;2.50;;;;;;;;;;5010020;28;20049;-64
2022/04/29 14:10:28;;;;;;;6.47;2.55;;;;;;;;;;5011397;28;20042;-64
2022/04/29 14:12:54;;;;;;;6.53;2.50;;;;;;;;;;5010102;28;20042;-65
2022/04/29 14:15:20;;;;;;;4.28;2.60;;;;;;;;;;5011288;28;20042;-65
2022/04/29 14:17:46;;;;;;;5.75;2.85;;;;;;;;;;5008696;28;20373;-65
2022/04/29 14:20:13;;;;;;;7.38;3.10;;;;;;;;;;5010887;28;20042;-65
2022/04/29 14:22:40;;;;;;;5.72;2.83;;;;;;;;;;5011018;28;20534;-65
2022/04/29 14:25:06;;;;;;;4.22;2.53;;;;;;;;;;5010035;28;20045;-66
2022/04/29 14:27:32;;;;;;;4.70;2.25;;;;;;;;;;5011757;28;20037;-65
2022/04/29 14:29:58;;;;;;;3.63;2.60;;;;;;;;;;5014395;28;20092;-65
2022/04/29 14:32:25;;;;;;;5.38;3.10;;;;;;;;;;5012700;28;20045;-65
2022/04/29 14:34:51;;;;;;;3.85;2.67;;;;;;;;;;5012855;28;20570;-65
2022/04/29 14:37:18;;;;;;;4.95;2.30;;;;;;;;;;5014737;28;20041;-65
2022/04/29 14:39:44;;;;;;;4.53;2.90;;;;;;;;;;5014057;28;20417;-65
2022/04/29 14:42:11;;;;;;;3.60;3.10;;;;;;;;;;5014337;28;20074;-65
2022/04/29 14:44:37;;;;;;;5.70;2.95;;;;;;;;;;5014251;28;20552;-65
2022/04/29 14:47:03;;;;;;;4.28;2.70;;;;;;;;;;5012492;28;20562;-65
2022/04/29 14:49:29;;;;;;;9.27;2.70;;;;;;;;;;5014167;28;20133;-65
2022/04/29 14:51:56;;;;;;;6.43;3.25;;;;;;;;;;5014527;28;20061;-65
2022/04/29 14:54:23;;;;;;;8.05;3.38;;;;;;;;;;5012412;28;20052;-65
2022/04/29 14:56:50;;;;;;;7.10;2.85;;;;;;;;;;5013999;28;20037;-65
2022/04/29 14:59:16;;;;;;;6.47;2.92;;;;;;;;;;5012960;28;20481;-65
2022/04/29 15:01:42;;;;;;;9.13;2.70;;;;;;;;;;5013496;28;20536;-65
2022/04/29 15:04:08;;;;;;;4.25;2.67;;;;;;;;;;5014390;28;20497;-65
2022/04/29 15:06:35;;;;;;;3.15;2.42;;;;;;;;;;5013056;28;20065;-65
2022/04/29 15:17:21;;;;;;;4.70;2.60;;;;;;;;;;5013531;28;20380;-65